Flight Track Log - Related Links

Times and Time Zones

All times are in EDT time to prevent confusion due to time zone crossing. See the N45N flight status page for this flight to view local times or setup timezone preferences in your user account.

Time Position Orientation Groundspeed Altitude Reporting Facility
EDT Latitude Longitude Course Direction KTS MPH feet Rate Location/Type
Thu 11:09:18 AM 37.9839 -87.4931 93° East 151 174 3,200  Level Indianapolis Center
Thu 11:10:20 AM 37.9875 -87.4406 85° East 150 173 4,300 1,065 Climbing Indianapolis Center
Thu 11:11:22 AM 37.9908 -87.3842 86° East 154 177 5,400 1,306 Climbing Indianapolis Center
Thu 11:12:24 AM 37.9989 -87.3164 81° East 160 184 7,000 1,403 Climbing Indianapolis Center
Thu 11:13:00 AM 38.0698 -87.1013 82° East  Level Estimated
Thu 11:13:26 AM 38.0036 -87.2592 84° East 163 188 8,300  Level Indianapolis Center
Thu 11:14:00 AM 38.0672 -87.0295 93° East  Level FlightAware Approximate
Thu 11:14:28 AM 38.0081 -87.2014 84° East 164 189 9,600  Level Indianapolis Center
Thu 11:15:30 AM 38.0106 -87.1431 87° East 166 191 10,800 1,258 Climbing Indianapolis Center
Thu 11:16:32 AM 38.0172 -87.0839 82° East 169 194 12,200 1,210 Climbing Indianapolis Center
Thu 11:17:34 AM 38.0261 -87.0261 79° East 168 193 13,300 1,210 Climbing Indianapolis Center
Thu 11:18:36 AM 38.0261 -86.9539 90° East 171 197 14,700 1,161 Climbing Indianapolis Center
Thu 11:19:38 AM 38.0328 -86.8936 82° East 173 199 15,700 1,016 Climbing Indianapolis Center
Thu 11:20:40 AM 38.0378 -86.8336 84° East 172 198 16,800 1,016 Climbing Indianapolis Center
Thu 11:21:42 AM 38.0444 -86.7728 82° East 172 198 17,800 774 Climbing Indianapolis Center
Thu 11:22:44 AM 38.0492 -86.7128 84° East 171 197 18,400 677 Climbing Indianapolis Center
Thu 11:23:46 AM 38.0536 -86.6494 85° East 178 205 19,200 823 Climbing Indianapolis Center
Thu 11:24:48 AM 38.0572 -86.5747 86° East 177 204 20,100 726 Climbing Indianapolis Center
Thu 11:25:50 AM 38.0606 -86.5092 86° East 184 212 20,700 581 Climbing Indianapolis Center
Thu 11:26:52 AM 38.0667 -86.4422 83° East 190 219 21,300 581 Climbing Indianapolis Center
Thu 11:27:54 AM 38.0714 -86.3753 85° East 189 217 21,900 484 Climbing Indianapolis Center
Thu 11:28:56 AM 38.0744 -86.3058 87° East 195 224 22,300 435 Climbing Indianapolis Center
Thu 11:29:58 AM 38.0792 -86.2369 85° East 198 228 22,800 339 Climbing Indianapolis Center
Thu 11:31:00 AM 38.0833 -86.1664 86° East 199 229 23,000 97 Climbing Indianapolis Center
Thu 11:32:02 AM 38.0872 -86.0758 87° East 212 244 23,000  Level Indianapolis Center
Thu 11:33:05 AM 38.0944 -85.9992 83° East 218 251 23,000  Level Indianapolis Center
Thu 11:34:07 AM 38.1006 -85.9231 84° East 217 250 23,000  Level Indianapolis Center
Thu 11:35:09 AM 38.1086 -85.8456 82° East 220 253 23,000  Level Indianapolis Center
Thu 11:36:11 AM 38.1142 -85.7686 85° East 219 252 23,000  Level Indianapolis Center
Thu 11:37:13 AM 38.1211 -85.6911 83° East 221 254 23,000  Level Indianapolis Center
Thu 11:38:15 AM 38.1253 -85.6133 86° East 220 253 23,000  Level Indianapolis Center
Thu 11:39:17 AM 38.1314 -85.5197 85° East 221 254 23,000  Level Indianapolis Center
Thu 11:40:19 AM 38.1364 -85.4414 85° East 221 254 23,000  Level Indianapolis Center
Thu 11:41:21 AM 38.1417 -85.3628 85° East 223 257 23,000  Level Indianapolis Center
Thu 11:42:23 AM 38.1469 -85.2842 85° East 224 258 23,000  Level Indianapolis Center
Thu 11:43:25 AM 38.1506 -85.1964 87° East 221 254 23,000  Level Indianapolis Center
Thu 11:44:27 AM 38.1550 -85.1194 86° East 218 251 23,000  Level Indianapolis Center
Thu 11:45:29 AM 38.1594 -85.0425 86° East 217 250 23,000  Level Indianapolis Center
Thu 11:46:31 AM 38.1644 -84.9647 85° East 218 251 23,000  Level Indianapolis Center
Thu 11:47:33 AM 38.1686 -84.8886 86° East 218 251 23,000  Level Indianapolis Center
Thu 11:48:35 AM 38.1717 -84.8131 87° East 215 247 23,000  Level Indianapolis Center
Thu 11:49:37 AM 38.1772 -84.7233 85° East 217 250 23,000  Level Indianapolis Center
Thu 11:50:39 AM 38.1814 -84.6469 86° East 217 250 23,000  Level Indianapolis Center
Thu 11:51:41 AM 38.1875 -84.5700 84° East 218 251 23,000  Level Indianapolis Center
Thu 11:52:43 AM 38.1906 -84.4936 87° East 217 250 23,000  Level Indianapolis Center
Thu 11:53:45 AM 38.1950 -84.4167 86° East 218 251 23,000  Level Indianapolis Center
Thu 11:54:47 AM 38.1989 -84.3272 87° East 218 251 23,000  Level Indianapolis Center
Thu 11:55:49 AM 38.2033 -84.2525 86° East 215 247 23,000  Level Indianapolis Center
Thu 11:56:51 AM 38.2081 -84.1747 86° East 215 247 23,000  Level Indianapolis Center
Thu 11:57:53 AM 38.2125 -84.0972 86° East 218 251 23,000  Level Indianapolis Center
Thu 11:58:55 AM 38.2158 -84.0214 87° East 216 249 23,000  Level Indianapolis Center
Thu 11:59:58 AM 38.2194 -83.9467 86° East 213 245 23,000  Level Indianapolis Center
Thu 12:01:00 PM 38.2236 -83.8586 87° East 214 246 23,000  Level Indianapolis Center
Thu 12:02:02 PM 38.2286 -83.7839 85° East 213 245 23,000  Level Indianapolis Center
Thu 12:03:04 PM 38.2311 -83.7097 88° East 212 244 23,000  Level Indianapolis Center
Thu 12:04:06 PM 38.2350 -83.6331 86° East 215 247 23,000  Level Indianapolis Center
Thu 12:05:08 PM 38.2389 -83.5581 86° East 214 246 23,000  Level Indianapolis Center
Thu 12:06:10 PM 38.2431 -83.4694 87° East 215 247 23,000  Level Indianapolis Center
Thu 12:07:12 PM 38.2467 -83.3928 87° East 215 247 23,000  Level Indianapolis Center
Thu 12:08:14 PM 38.2497 -83.3164 87° East 216 249 23,000  Level Indianapolis Center
Thu 12:09:16 PM 38.2533 -83.2394 87° East 216 249 23,000  Level Indianapolis Center
Thu 12:10:18 PM 38.2564 -83.1619 87° East 217 250 23,000  Level Indianapolis Center
Thu 12:11:20 PM 38.2603 -83.0858 86° East 215 247 23,000  Level Indianapolis Center
Thu 12:12:22 PM 38.2644 -82.9958 87° East 217 250 23,000  Level Indianapolis Center
Thu 12:13:24 PM 38.2681 -82.9192 87° East 216 249 23,000  Level Indianapolis Center
Thu 12:14:26 PM 38.2725 -82.8411 86° East 218 251 23,000  Level Indianapolis Center
Thu 12:15:28 PM 38.2756 -82.7650 87° East 215 247 23,000  Level Indianapolis Center
Thu 12:16:30 PM 38.2786 -82.6872 87° East 219 252 23,000  Level Indianapolis Center
Thu 12:17:32 PM 38.2806 -82.6117 88° East 215 247 23,000  Level Indianapolis Center
Thu 12:18:33 PM 38.2839 -82.5206 87° East 217 250 23,000  Level Indianapolis Center
Thu 12:19:35 PM 38.2861 -82.4536 88° East 220 253 23,000  Level Indianapolis Center
Thu 12:21:00 PM 38.2916 -82.3517 86° East  Level FlightAware Approximate
Thu 12:21:39 PM 38.2931 -82.2850 86° East 217 250 23,000  Level Indianapolis Center
Thu 12:22:41 PM 38.2967 -82.2083 87° East 217 250 23,000  Level Indianapolis Center
Thu 12:23:43 PM 38.2989 -82.1303 88° East 219 252 23,000  Level Indianapolis Center
Thu 12:24:45 PM 38.3017 -82.0531 87° East 218 251 23,000  Level Indianapolis Center
Thu 12:25:47 PM 38.3047 -81.9758 87° East 219 252 23,000  Level Indianapolis Center
Thu 12:26:49 PM 38.3069 -81.8997 88° East 217 250 23,000  Level Indianapolis Center
Thu 12:27:51 PM 38.3100 -81.8083 88° East 216 249 23,000  Level Indianapolis Center
Thu 12:28:52 PM 38.3119 -81.7319 88° East 217 250 23,000  Level Indianapolis Center
Thu 12:29:54 PM 38.3147 -81.6544 87° East 219 252 23,000  Level Indianapolis Center
Thu 12:30:56 PM 38.3161 -81.5772 89° East 219 252 23,000  Level Indianapolis Center
Thu 12:31:58 PM 38.3189 -81.5006 87° East 219 252 23,000  Level Indianapolis Center
Thu 12:33:00 PM 38.3214 -81.4233 88° East 219 252 23,000  Level Indianapolis Center
Thu 12:34:02 PM 38.3233 -81.3300 88° East 220 253 23,000  Level Indianapolis Center
Thu 12:35:04 PM 38.3250 -81.2519 88° East 221 254 23,000  Level Indianapolis Center
Thu 12:36:06 PM 38.3283 -81.1736 87° East 221 254 23,000  Level Indianapolis Center
Thu 12:37:08 PM 38.3308 -81.0950 88° East 223 257 23,000  Level Indianapolis Center
Thu 12:38:10 PM 38.3331 -81.0175 88° East 221 254 23,000  Level Indianapolis Center
Thu 12:39:12 PM 38.3353 -80.9389 88° East 221 254 23,000  Level Indianapolis Center
Thu 12:40:14 PM 38.3369 -80.8433 89° East 224 258 23,000  Level Indianapolis Center
Thu 12:41:16 PM 38.3381 -80.7653 89° East 222 255 23,000  Level Indianapolis Center
Thu 12:42:18 PM 38.3394 -80.6847 89° East 226 260 23,000  Level Indianapolis Center
Thu 12:43:20 PM 38.3411 -80.6061 88° East 223 257 23,000 -48 Level Indianapolis Center
Thu 12:44:22 PM 38.3439 -80.5275 87° East 223 257 22,900 -484 Descending Indianapolis Center
Thu 12:45:24 PM 38.3456 -80.4494 88° East 220 253 22,000 -1,161 Descending Indianapolis Center
Thu 12:46:26 PM 38.3447 -80.3533 91° East 226 260 20,500 -1,258 Descending Indianapolis Center
Thu 12:47:28 PM 38.3450 -80.2717 90° East 231 266 19,400 -1,016 Descending Indianapolis Center
Thu 12:48:30 PM 38.3486 -80.1925 87° East 224 258 18,400 -968 Descending Indianapolis Center
Thu 12:49:32 PM 38.3506 -80.1156 88° East 218 251 17,400 -968 Descending Indianapolis Center
Thu 12:50:34 PM 38.3497 -80.0406 91° East 214 246 16,400 -919 Descending Indianapolis Center
Thu 12:51:36 PM 38.3525 -79.9692 87° East 206 237 15,500 -1,065 Descending Indianapolis Center
Thu 12:52:38 PM 38.3422 -79.8853 99° East 200 230 14,200 -992 Descending Indianapolis Center
Thu 12:53:49 PM 38.3453 -79.8039 87° East 199 229 13,300 -761 Descending Washington Center

Login

Don't have an account? Register now (free) for customized features, flight alerts, and more!